AZA629 KLAX-LIRF
Flight info
| Callsign | AZA629 |
|---|---|
| Flight time | N/A |
| Altitude | 33000 |
| Route | OSHNN1 BEALE DCT EEVUN DCT BCE DCT MBW DCT RAP DCT KP06A DCT MISAX/N0488F350 DCT PELEE DCT BROME DCT LOMSI/M084F370 DCT 55N050W 57N040W 58N030W 56N020W DCT PIKIL DCT SOVED/N0486F390 DCT LUTOV DCT MAKUX DCT SOSIM L15 FINMA DCT CHT DCT ITVIP DCT KONAN UL607 KOK DCT CIV DCT SUTAL DCT GTQ DCT DEVDI DCT ODINA DCT EKPAL DCT TINKU DCT XIBIL |
| Aircraft | MD11/H-SDE1E2E3FGHIJ2J3J4J5M1RWXYZ/LB1D1 |
Departure
| Time | 2026-04-22 09:30 |
|---|---|
| Airport | Los Angeles International Airport (KLAX) |
Arrival
| Time | N/A |
|---|---|
| Airport | Rome–Fiumicino Leonardo da Vinci International Airport (LIRF) |
| Time | Latitude | Longitude | Altitude | Speed | Heading |
|---|---|---|---|---|---|
| 2026-04-22 08:24 | 33.94023 | -118.40935 | 133 ft | 0 kts | 264° |
| 2026-04-22 09:11 | 33.94023 | -118.40934 | 133 ft | 2 kts | 264° |
| 2026-04-22 09:11 | 33.94027 | -118.40905 | 128 ft | 4 kts | 249° |
| 2026-04-22 09:12 | 33.94039 | -118.40876 | 133 ft | 4 kts | 233° |
| 2026-04-22 09:12 | 33.94056 | -118.40853 | 133 ft | 4 kts | 215° |
| 2026-04-22 09:12 | 33.94078 | -118.40838 | 130 ft | 4 kts | 194° |
| 2026-04-22 09:12 | 33.94099 | -118.40834 | 133 ft | 0 kts | 173° |
| 2026-04-22 09:16 | 33.94098 | -118.40834 | 133 ft | 1 kts | 173° |
| 2026-04-22 09:16 | 33.94074 | -118.40830 | 129 ft | 7 kts | 173° |
| 2026-04-22 09:16 | 33.94015 | -118.40822 | 128 ft | 10 kts | 173° |
| 2026-04-22 09:16 | 33.93942 | -118.40811 | 128 ft | 10 kts | 173° |
| 2026-04-22 09:17 | 33.93897 | -118.40785 | 128 ft | 8 kts | 135° |
| 2026-04-22 09:17 | 33.93886 | -118.40723 | 124 ft | 9 kts | 83° |
| 2026-04-22 09:17 | 33.93897 | -118.40626 | 125 ft | 16 kts | 84° |
| 2026-04-22 09:17 | 33.93913 | -118.40471 | 133 ft | 21 kts | 82° |
| 2026-04-22 09:18 | 33.93931 | -118.40298 | 133 ft | 21 kts | 83° |
| 2026-04-22 09:18 | 33.93948 | -118.40130 | 133 ft | 20 kts | 83° |
| 2026-04-22 09:18 | 33.93964 | -118.39967 | 126 ft | 19 kts | 83° |
| 2026-04-22 09:18 | 33.93980 | -118.39810 | 133 ft | 19 kts | 82° |
| 2026-04-22 09:19 | 33.93995 | -118.39658 | 133 ft | 18 kts | 83° |
| 2026-04-22 09:19 | 33.94010 | -118.39511 | 125 ft | 17 kts | 83° |
| 2026-04-22 09:19 | 33.94025 | -118.39370 | 128 ft | 17 kts | 83° |
| 2026-04-22 09:19 | 33.94040 | -118.39232 | 125 ft | 16 kts | 83° |
| 2026-04-22 09:20 | 33.94053 | -118.39099 | 125 ft | 16 kts | 84° |
| 2026-04-22 09:20 | 33.94059 | -118.38967 | 133 ft | 16 kts | 84° |
| 2026-04-22 09:20 | 33.94072 | -118.38826 | 131 ft | 18 kts | 83° |
| 2026-04-22 09:20 | 33.94088 | -118.38670 | 126 ft | 19 kts | 83° |
| 2026-04-22 09:21 | 33.94104 | -118.38519 | 133 ft | 17 kts | 83° |
| 2026-04-22 09:21 | 33.94116 | -118.38390 | 130 ft | 12 kts | 83° |
| 2026-04-22 09:21 | 33.94104 | -118.38349 | 124 ft | 2 kts | 142° |
| 2026-04-22 09:21 | 33.94073 | -118.38340 | 128 ft | 7 kts | 171° |
| 2026-04-22 09:22 | 33.94062 | -118.38338 | 131 ft | 0 kts | 172° |
| 2026-04-22 09:27 | 33.94056 | -118.38337 | 128 ft | 2 kts | 172° |
| 2026-04-22 09:27 | 33.94034 | -118.38333 | 131 ft | 4 kts | 172° |
| 2026-04-22 09:27 | 33.93996 | -118.38329 | 131 ft | 6 kts | 183° |
| 2026-04-22 09:28 | 33.93960 | -118.38357 | 131 ft | 6 kts | 234° |
| 2026-04-22 09:28 | 33.93948 | -118.38406 | 131 ft | 6 kts | 257° |
| 2026-04-22 09:28 | 33.93941 | -118.38452 | 125 ft | 3 kts | 263° |
| 2026-04-22 09:28 | 33.93941 | -118.38453 | 125 ft | 0 kts | 263° |
| 2026-04-22 09:29 | 33.93923 | -118.38639 | 129 ft | 58 kts | 263° |
| 2026-04-22 09:29 | 33.93842 | -118.39416 | 133 ft | 127 kts | 263° |
| 2026-04-22 09:29 | 33.93713 | -118.40695 | 135 ft | 178 kts | 263° |
| 2026-04-22 09:30 | 33.93549 | -118.42246 | 452 ft | 190 kts | 262° |
| 2026-04-22 09:30 | 33.93366 | -118.43829 | 1115 ft | 192 kts | 264° |
| 2026-04-22 09:30 | 33.93172 | -118.45406 | 1832 ft | 190 kts | 257° |
| 2026-04-22 09:30 | 33.92631 | -118.46852 | 2402 ft | 190 kts | 236° |
| 2026-04-22 09:31 | 33.91811 | -118.48119 | 2896 ft | 193 kts | 234° |
| 2026-04-22 09:31 | 33.90943 | -118.49378 | 3290 ft | 202 kts | 231° |
| 2026-04-22 09:31 | 33.90019 | -118.50681 | 3683 ft | 205 kts | 232° |
| 2026-04-22 09:31 | 33.89089 | -118.51992 | 4083 ft | 206 kts | 232° |
| 2026-04-22 09:32 | 33.88153 | -118.53316 | 4489 ft | 209 kts | 232° |
| 2026-04-22 09:32 | 33.87147 | -118.54587 | 4875 ft | 212 kts | 222° |
| 2026-04-22 09:32 | 33.85881 | -118.55513 | 5233 ft | 216 kts | 204° |
| 2026-04-22 09:32 | 33.84393 | -118.55851 | 5552 ft | 222 kts | 182° |
| 2026-04-22 09:33 | 33.82843 | -118.55605 | 5865 ft | 226 kts | 173° |
| 2026-04-22 09:33 | 33.81292 | -118.55204 | 6178 ft | 229 kts | 171° |
| 2026-04-22 09:33 | 33.79728 | -118.54781 | 6484 ft | 231 kts | 172° |
| 2026-04-22 09:33 | 33.78159 | -118.54354 | 6783 ft | 232 kts | 172° |
| 2026-04-22 09:34 | 33.76582 | -118.53924 | 7054 ft | 233 kts | 172° |
| 2026-04-22 09:34 | 33.74997 | -118.53493 | 7323 ft | 234 kts | 172° |
| 2026-04-22 09:34 | 33.73409 | -118.53032 | 7572 ft | 236 kts | 168° |
| 2026-04-22 09:35 | 33.70469 | -118.51227 | 8056 ft | 245 kts | 143° |
| 2026-04-22 09:35 | 33.69295 | -118.49714 | 8251 ft | 251 kts | 128° |
| 2026-04-22 09:35 | 33.68452 | -118.47867 | 8460 ft | 254 kts | 114° |
| 2026-04-22 09:35 | 33.67826 | -118.45871 | 8665 ft | 256 kts | 111° |
| 2026-04-22 09:36 | 33.67241 | -118.43842 | 8868 ft | 258 kts | 111° |
| 2026-04-22 09:36 | 33.66654 | -118.41798 | 9066 ft | 259 kts | 111° |
| 2026-04-22 09:36 | 33.66066 | -118.39758 | 9253 ft | 260 kts | 111° |
| 2026-04-22 09:36 | 33.65466 | -118.37687 | 9434 ft | 262 kts | 111° |
| 2026-04-22 09:37 | 33.64870 | -118.35623 | 9599 ft | 263 kts | 109° |
| 2026-04-22 09:37 | 33.64524 | -118.33442 | 9710 ft | 271 kts | 95° |
| 2026-04-22 09:37 | 33.64452 | -118.31149 | 9883 ft | 280 kts | 91° |
| 2026-04-22 09:37 | 33.64445 | -118.28805 | 10028 ft | 288 kts | 90° |
| 2026-04-22 09:38 | 33.64450 | -118.26368 | 10161 ft | 297 kts | 90° |
| 2026-04-22 09:38 | 33.64473 | -118.23854 | 10286 ft | 306 kts | 88° |
| 2026-04-22 09:38 | 33.64710 | -118.21291 | 10408 ft | 313 kts | 77° |
| 2026-04-22 09:38 | 33.65379 | -118.18784 | 10539 ft | 318 kts | 63° |
| 2026-04-22 09:39 | 33.66531 | -118.16511 | 10667 ft | 321 kts | 47° |
| 2026-04-22 09:39 | 33.68103 | -118.14610 | 10766 ft | 324 kts | 35° |
| 2026-04-22 09:39 | 33.69921 | -118.12923 | 10881 ft | 338 kts | 32° |
| 2026-04-22 09:39 | 33.71888 | -118.11219 | 11009 ft | 357 kts | 31° |
| 2026-04-22 09:40 | 33.73963 | -118.09429 | 11134 ft | 377 kts | 32° |
| 2026-04-22 09:40 | 33.76126 | -118.07538 | 11417 ft | 389 kts | 32° |
| 2026-04-22 09:40 | 33.78320 | -118.05590 | 11953 ft | 394 kts | 33° |
| 2026-04-22 09:40 | 33.80533 | -118.03608 | 12482 ft | 399 kts | 33° |
| 2026-04-22 09:41 | 33.82737 | -118.01623 | 13008 ft | 403 kts | 33° |
| 2026-04-22 09:41 | 33.84996 | -117.99585 | 13560 ft | 408 kts | 33° |
| 2026-04-22 09:41 | 33.87278 | -117.97524 | 14049 ft | 413 kts | 33° |
| 2026-04-22 09:41 | 33.89584 | -117.95437 | 14515 ft | 416 kts | 33° |
| 2026-04-22 09:42 | 33.91901 | -117.93329 | 14978 ft | 419 kts | 33° |
| 2026-04-22 09:42 | 33.94235 | -117.91195 | 15449 ft | 422 kts | 33° |
| 2026-04-22 09:42 | 33.96578 | -117.89046 | 15873 ft | 425 kts | 33° |
| 2026-04-22 09:42 | 33.98935 | -117.86880 | 16321 ft | 427 kts | 33° |
| 2026-04-22 09:43 | 34.01308 | -117.84697 | 16729 ft | 431 kts | 33° |
| 2026-04-22 09:43 | 34.03695 | -117.82500 | 17175 ft | 433 kts | 33° |
| 2026-04-22 09:43 | 34.06104 | -117.80283 | 17586 ft | 436 kts | 33° |
| 2026-04-22 09:43 | 34.08505 | -117.78025 | 17980 ft | 440 kts | 37° |
| 2026-04-22 09:44 | 34.10711 | -117.75425 | 18391 ft | 447 kts | 44° |
| 2026-04-22 09:44 | 34.12749 | -117.72563 | 18714 ft | 451 kts | 47° |
| 2026-04-22 09:44 | 34.14716 | -117.69584 | 19074 ft | 454 kts | 49° |
| 2026-04-22 09:44 | 34.16667 | -117.66572 | 19418 ft | 456 kts | 49° |
| 2026-04-22 09:45 | 34.18633 | -117.63549 | 19746 ft | 459 kts | 48° |
| 2026-04-22 09:45 | 34.20598 | -117.60558 | 20074 ft | 461 kts | 47° |
| 2026-04-22 09:45 | 34.22609 | -117.57524 | 20370 ft | 464 kts | 47° |
| 2026-04-22 09:45 | 34.24660 | -117.54448 | 20674 ft | 465 kts | 47° |
| 2026-04-22 09:46 | 34.26680 | -117.51423 | 20983 ft | 468 kts | 47° |
| 2026-04-22 09:46 | 34.28731 | -117.48356 | 21283 ft | 470 kts | 47° |
| 2026-04-22 09:46 | 34.30791 | -117.45273 | 21616 ft | 472 kts | 46° |
| 2026-04-22 09:46 | 34.32861 | -117.42174 | 21962 ft | 475 kts | 46° |
| 2026-04-22 09:47 | 34.34947 | -117.39052 | 22294 ft | 477 kts | 46° |
| 2026-04-22 09:47 | 34.37038 | -117.35923 | 22621 ft | 480 kts | 46° |
| 2026-04-22 09:47 | 34.39142 | -117.32774 | 22964 ft | 482 kts | 46° |
| 2026-04-22 09:47 | 34.41255 | -117.29609 | 23308 ft | 484 kts | 46° |
| 2026-04-22 09:48 | 34.43378 | -117.26426 | 23642 ft | 487 kts | 46° |
| 2026-04-22 09:48 | 34.45513 | -117.23224 | 23937 ft | 490 kts | 46° |
| 2026-04-22 09:48 | 34.47658 | -117.20002 | 24233 ft | 492 kts | 46° |
| 2026-04-22 09:48 | 34.49809 | -117.16769 | 24543 ft | 494 kts | 46° |
| 2026-04-22 09:49 | 34.51965 | -117.13524 | 24847 ft | 496 kts | 46° |
| 2026-04-22 09:49 | 34.54108 | -117.10309 | 25158 ft | 497 kts | 45° |
| 2026-04-22 09:49 | 34.56313 | -117.07051 | 25460 ft | 499 kts | 45° |
| 2026-04-22 09:49 | 34.58531 | -117.03808 | 25766 ft | 501 kts | 45° |
| 2026-04-22 09:50 | 34.60772 | -117.00549 | 26091 ft | 503 kts | 45° |
| 2026-04-22 09:50 | 34.63025 | -116.97275 | 26358 ft | 505 kts | 44° |
| 2026-04-22 09:50 | 34.65282 | -116.93993 | 26665 ft | 507 kts | 44° |
| 2026-04-22 09:50 | 34.67546 | -116.90694 | 26961 ft | 509 kts | 44° |
| 2026-04-22 09:51 | 34.69812 | -116.87387 | 27271 ft | 511 kts | 44° |
| 2026-04-22 09:51 | 34.72090 | -116.84057 | 27582 ft | 513 kts | 44° |
| 2026-04-22 09:51 | 34.74381 | -116.80705 | 27881 ft | 515 kts | 44° |
| 2026-04-22 09:51 | 34.76674 | -116.77346 | 28181 ft | 517 kts | 44° |
| 2026-04-22 09:52 | 34.78973 | -116.73974 | 28483 ft | 519 kts | 44° |
| 2026-04-22 09:52 | 34.81281 | -116.70587 | 28753 ft | 521 kts | 44° |
| 2026-04-22 09:52 | 34.83596 | -116.67186 | 29025 ft | 523 kts | 44° |
| 2026-04-22 09:52 | 34.85927 | -116.63829 | 29097 ft | 528 kts | 43° |
| 2026-04-22 09:53 | 34.90867 | -116.57116 | 29096 ft | 536 kts | 41° |
| 2026-04-22 09:53 | 34.95939 | -116.50391 | 29088 ft | 542 kts | 41° |
| 2026-04-22 09:54 | 35.01055 | -116.43578 | 29063 ft | 545 kts | 41° |
| 2026-04-22 09:54 | 35.06165 | -116.36726 | 29066 ft | 546 kts | 42° |
| 2026-04-22 09:55 | 35.11268 | -116.29864 | 29064 ft | 547 kts | 42° |
| 2026-04-22 09:55 | 35.16386 | -116.22969 | 29070 ft | 548 kts | 42° |
| 2026-04-22 09:56 | 35.21464 | -116.16116 | 29072 ft | 548 kts | 42° |
| 2026-04-22 09:56 | 35.26583 | -116.09195 | 29075 ft | 549 kts | 42° |
| 2026-04-22 09:57 | 35.31711 | -116.02247 | 29073 ft | 550 kts | 42° |
| 2026-04-22 09:57 | 35.36829 | -115.95297 | 29076 ft | 550 kts | 42° |
| 2026-04-22 09:58 | 35.41951 | -115.88319 | 29078 ft | 550 kts | 42° |
| 2026-04-22 09:58 | 35.47055 | -115.81320 | 29081 ft | 550 kts | 42° |
| 2026-04-22 09:59 | 35.52154 | -115.74336 | 29078 ft | 549 kts | 42° |
| 2026-04-22 09:59 | 35.56403 | -115.68518 | 29082 ft | 550 kts | 42° |
| 2026-04-22 10:00 | 35.61497 | -115.61534 | 29081 ft | 549 kts | 43° |
| 2026-04-22 10:00 | 35.66603 | -115.54517 | 29067 ft | 550 kts | 43° |
| 2026-04-22 10:01 | 35.71697 | -115.47494 | 29067 ft | 550 kts | 43° |
| 2026-04-22 10:01 | 35.76776 | -115.40466 | 29059 ft | 549 kts | 43° |
| 2026-04-22 10:02 | 35.81819 | -115.33485 | 29056 ft | 549 kts | 43° |
| 2026-04-22 10:02 | 35.86905 | -115.26437 | 29056 ft | 549 kts | 43° |
| 2026-04-22 10:03 | 35.91986 | -115.19384 | 29056 ft | 550 kts | 44° |
| 2026-04-22 10:03 | 35.97071 | -115.12307 | 29057 ft | 551 kts | 44° |
| 2026-04-22 10:04 | 36.02162 | -115.05207 | 29061 ft | 552 kts | 44° |
| 2026-04-22 10:04 | 36.07257 | -114.98085 | 29018 ft | 553 kts | 44° |
| 2026-04-22 10:05 | 36.12353 | -114.90946 | 28943 ft | 553 kts | 44° |
| 2026-04-22 10:05 | 36.17414 | -114.83854 | 28954 ft | 553 kts | 44° |
| 2026-04-22 10:06 | 36.22664 | -114.76903 | 28933 ft | 552 kts | 41° |
| 2026-04-22 10:06 | 36.28026 | -114.70107 | 28914 ft | 552 kts | 41° |
| 2026-04-22 10:07 | 36.33399 | -114.63304 | 28877 ft | 552 kts | 42° |
| 2026-04-22 10:07 | 36.38757 | -114.56467 | 28881 ft | 552 kts | 42° |
| 2026-04-22 10:08 | 36.44107 | -114.49610 | 28881 ft | 552 kts | 42° |
| 2026-04-22 10:08 | 36.49412 | -114.42795 | 28865 ft | 552 kts | 43° |
| 2026-04-22 10:09 | 36.54750 | -114.35925 | 28884 ft | 552 kts | 43° |
| 2026-04-22 10:09 | 36.60085 | -114.29046 | 28875 ft | 553 kts | 43° |
| 2026-04-22 10:10 | 36.65416 | -114.22156 | 28880 ft | 552 kts | 43° |
| 2026-04-22 10:10 | 36.70741 | -114.15259 | 28865 ft | 551 kts | 43° |
| 2026-04-22 10:11 | 36.76045 | -114.08371 | 28889 ft | 551 kts | 44° |
| 2026-04-22 10:11 | 36.81338 | -114.01446 | 28889 ft | 551 kts | 44° |
| 2026-04-22 10:12 | 36.86638 | -113.94517 | 28883 ft | 550 kts | 44° |
| 2026-04-22 10:12 | 36.91926 | -113.87607 | 28906 ft | 550 kts | 44° |
| 2026-04-22 10:13 | 36.97211 | -113.80691 | 28930 ft | 550 kts | 44° |
| 2026-04-22 10:13 | 37.02491 | -113.73766 | 28961 ft | 550 kts | 44° |
| 2026-04-22 10:14 | 37.07411 | -113.66540 | 28984 ft | 550 kts | 55° |
| 2026-04-22 10:14 | 37.11326 | -113.58307 | 28993 ft | 550 kts | 62° |
| 2026-04-22 10:15 | 37.14976 | -113.49886 | 28983 ft | 549 kts | 61° |
| 2026-04-22 10:15 | 37.18709 | -113.41525 | 28962 ft | 548 kts | 60° |
| 2026-04-22 10:16 | 37.22498 | -113.33227 | 28932 ft | 547 kts | 60° |
| 2026-04-22 10:16 | 37.26292 | -113.24934 | 28900 ft | 546 kts | 60° |
| 2026-04-22 10:17 | 37.30063 | -113.16657 | 28886 ft | 545 kts | 60° |
| 2026-04-22 10:17 | 37.33793 | -113.08438 | 28879 ft | 544 kts | 61° |
| 2026-04-22 10:18 | 37.37537 | -113.00164 | 28894 ft | 543 kts | 61° |
| 2026-04-22 10:18 | 37.41266 | -112.91903 | 28895 ft | 542 kts | 61° |
| 2026-04-22 10:19 | 37.44982 | -112.83651 | 28890 ft | 541 kts | 61° |
| 2026-04-22 10:19 | 37.48668 | -112.75418 | 28880 ft | 540 kts | 62° |
| 2026-04-22 10:20 | 37.52334 | -112.67166 | 28872 ft | 538 kts | 62° |
| 2026-04-22 10:20 | 37.55976 | -112.58992 | 28865 ft | 537 kts | 62° |
| 2026-04-22 10:21 | 37.59630 | -112.50794 | 28911 ft | 536 kts | 62° |
| 2026-04-22 10:21 | 37.63279 | -112.42590 | 28976 ft | 536 kts | 62° |
| 2026-04-22 10:22 | 37.67296 | -112.34685 | 29040 ft | 536 kts | 51° |
| 2026-04-22 10:22 | 37.72281 | -112.27664 | 29098 ft | 537 kts | 46° |
| 2026-04-22 10:23 | 37.77442 | -112.20857 | 29110 ft | 537 kts | 46° |
| 2026-04-22 10:23 | 37.82541 | -112.13948 | 29082 ft | 537 kts | 47° |
| 2026-04-22 10:24 | 37.87552 | -112.07014 | 29021 ft | 537 kts | 48° |
| 2026-04-22 10:24 | 37.92580 | -112.00015 | 28965 ft | 536 kts | 48° |
| 2026-04-22 10:25 | 37.97599 | -111.93021 | 28889 ft | 536 kts | 48° |
| 2026-04-22 10:25 | 38.02613 | -111.86027 | 28847 ft | 536 kts | 48° |
| 2026-04-22 10:26 | 38.07621 | -111.79027 | 28845 ft | 535 kts | 49° |
| 2026-04-22 10:26 | 38.12628 | -111.72014 | 28844 ft | 535 kts | 49° |
| 2026-04-22 10:27 | 38.17589 | -111.65047 | 28834 ft | 534 kts | 49° |
| 2026-04-22 10:27 | 38.22561 | -111.58042 | 28833 ft | 533 kts | 49° |
| 2026-04-22 10:28 | 38.27508 | -111.51019 | 28818 ft | 532 kts | 49° |
| 2026-04-22 10:28 | 38.32453 | -111.44008 | 28811 ft | 532 kts | 49° |
| 2026-04-22 10:29 | 38.37404 | -111.36993 | 28798 ft | 531 kts | 49° |
| 2026-04-22 10:29 | 38.42344 | -111.29983 | 28789 ft | 531 kts | 49° |
| 2026-04-22 10:30 | 38.47281 | -111.22959 | 28779 ft | 531 kts | 49° |
| 2026-04-22 10:30 | 38.52218 | -111.15920 | 28776 ft | 531 kts | 49° |
| 2026-04-22 10:31 | 38.57145 | -111.08877 | 28786 ft | 531 kts | 49° |
| 2026-04-22 10:31 | 38.62069 | -111.01825 | 28807 ft | 532 kts | 49° |
| 2026-04-22 10:32 | 38.66954 | -110.94813 | 28803 ft | 531 kts | 49° |
| 2026-04-22 10:32 | 38.71867 | -110.87743 | 28802 ft | 531 kts | 49° |
| 2026-04-22 10:33 | 38.76779 | -110.80659 | 28783 ft | 530 kts | 50° |
| 2026-04-22 10:33 | 38.81653 | -110.73571 | 28780 ft | 529 kts | 50° |
| 2026-04-22 10:34 | 38.86526 | -110.66480 | 28779 ft | 529 kts | 50° |
| 2026-04-22 10:34 | 38.91397 | -110.59402 | 28780 ft | 529 kts | 50° |
| 2026-04-22 10:35 | 38.96238 | -110.52362 | 28779 ft | 528 kts | 50° |
| 2026-04-22 10:35 | 39.01096 | -110.45278 | 28780 ft | 528 kts | 49° |
| 2026-04-22 10:36 | 39.05954 | -110.38178 | 28787 ft | 528 kts | 50° |
| 2026-04-22 10:36 | 39.10802 | -110.31076 | 28785 ft | 528 kts | 50° |
| 2026-04-22 10:37 | 39.18067 | -110.20404 | 28784 ft | 527 kts | 50° |
| 2026-04-22 10:38 | 39.22902 | -110.13279 | 29137 ft | 529 kts | 50° |
| 2026-04-22 10:38 | 39.25326 | -110.09702 | 29463 ft | 528 kts | 50° |
| 2026-04-22 10:38 | 39.27740 | -110.06135 | 29739 ft | 528 kts | 50° |
| 2026-04-22 10:38 | 39.30118 | -110.02619 | 30026 ft | 526 kts | 50° |
| 2026-04-22 10:39 | 39.32521 | -109.99055 | 30274 ft | 526 kts | 50° |
| 2026-04-22 10:39 | 39.34910 | -109.95488 | 30548 ft | 524 kts | 50° |
| 2026-04-22 10:39 | 39.37295 | -109.91923 | 30730 ft | 524 kts | 50° |
| 2026-04-22 10:40 | 39.42065 | -109.84804 | 30767 ft | 523 kts | 50° |
| 2026-04-22 10:40 | 39.46830 | -109.77699 | 30774 ft | 521 kts | 50° |
| 2026-04-22 10:41 | 39.51574 | -109.70616 | 30762 ft | 521 kts | 50° |
| 2026-04-22 10:41 | 39.56313 | -109.63522 | 30761 ft | 520 kts | 50° |
| 2026-04-22 10:42 | 39.61037 | -109.56436 | 30754 ft | 519 kts | 50° |
| 2026-04-22 10:42 | 39.65750 | -109.49348 | 30760 ft | 518 kts | 50° |
| 2026-04-22 10:43 | 39.70432 | -109.42291 | 30751 ft | 519 kts | 50° |
| 2026-04-22 10:43 | 39.75137 | -109.35182 | 30753 ft | 518 kts | 50° |
| 2026-04-22 10:44 | 39.79837 | -109.28067 | 30748 ft | 519 kts | 50° |
| 2026-04-22 10:44 | 39.84527 | -109.20949 | 30755 ft | 518 kts | 50° |
| 2026-04-22 10:45 | 39.89208 | -109.13797 | 30746 ft | 518 kts | 50° |
| 2026-04-22 10:45 | 39.93870 | -109.06644 | 30753 ft | 517 kts | 50° |
| 2026-04-22 10:46 | 39.98530 | -108.99509 | 30749 ft | 517 kts | 50° |
| 2026-04-22 10:46 | 40.03167 | -108.92409 | 30752 ft | 517 kts | 50° |
| 2026-04-22 10:47 | 40.07828 | -108.85255 | 30743 ft | 517 kts | 50° |
| 2026-04-22 10:47 | 40.12476 | -108.78103 | 30758 ft | 516 kts | 50° |
| 2026-04-22 10:48 | 40.17118 | -108.70944 | 30749 ft | 515 kts | 50° |
| 2026-04-22 10:48 | 40.20958 | -108.65008 | 30767 ft | 514 kts | 50° |
| 2026-04-22 10:49 | 40.25574 | -108.57859 | 30762 ft | 514 kts | 50° |
| 2026-04-22 10:49 | 40.30183 | -108.50703 | 30756 ft | 513 kts | 50° |
| 2026-04-22 10:50 | 40.34791 | -108.43533 | 30797 ft | 513 kts | 50° |
| 2026-04-22 10:50 | 40.39466 | -108.36239 | 30767 ft | 531 kts | 53° |
| 2026-04-22 10:51 | 40.44244 | -108.28716 | 30749 ft | 539 kts | 53° |
| 2026-04-22 10:51 | 40.49032 | -108.21174 | 30754 ft | 543 kts | 52° |
| 2026-04-22 10:52 | 40.53874 | -108.13562 | 30760 ft | 542 kts | 52° |
| 2026-04-22 10:52 | 40.58704 | -108.05959 | 30770 ft | 542 kts | 52° |
| 2026-04-22 10:53 | 40.63532 | -107.98339 | 30786 ft | 541 kts | 53° |
| 2026-04-22 10:53 | 40.68345 | -107.90719 | 30804 ft | 541 kts | 53° |
| 2026-04-22 10:54 | 40.73155 | -107.83086 | 30814 ft | 541 kts | 53° |
| 2026-04-22 10:54 | 40.77955 | -107.75450 | 30824 ft | 540 kts | 53° |
| 2026-04-22 10:55 | 40.82744 | -107.67811 | 30869 ft | 540 kts | 53° |
| 2026-04-22 10:55 | 40.87526 | -107.60165 | 30910 ft | 540 kts | 53° |
| 2026-04-22 10:56 | 40.92303 | -107.52509 | 30951 ft | 539 kts | 53° |
| 2026-04-22 10:56 | 40.97048 | -107.44837 | 30977 ft | 539 kts | 53° |
| 2026-04-22 10:57 | 41.01793 | -107.37150 | 30975 ft | 539 kts | 53° |
| 2026-04-22 10:57 | 41.06511 | -107.29519 | 30942 ft | 538 kts | 53° |